sensor_id;sensor_type;location;lat;lon;timestamp;P1;durP1;ratioP1;P2;durP2;ratioP2
4837;SDS011;2433;48.768;9.154;2023-02-28T00:01:19;3.35;;;2.60;;
4837;SDS011;2433;48.768;9.154;2023-02-28T00:03:44;4.10;;;3.07;;
4837;SDS011;2433;48.768;9.154;2023-02-28T00:06:10;4.60;;;2.17;;
4837;SDS011;2433;48.768;9.154;2023-02-28T00:08:36;2.90;;;2.53;;
4837;SDS011;2433;48.768;9.154;2023-02-28T00:11:02;2.85;;;2.55;;
4837;SDS011;2433;48.768;9.154;2023-02-28T00:13:29;2.50;;;2.30;;
4837;SDS011;2433;48.768;9.154;2023-02-28T00:15:59;2.40;;;2.20;;
4837;SDS011;2433;48.768;9.154;2023-02-28T00:18:28;2.92;;;2.45;;
4837;SDS011;2433;48.768;9.154;2023-02-28T00:20:54;2.83;;;2.50;;
4837;SDS011;2433;48.768;9.154;2023-02-28T00:23:19;5.33;;;2.77;;
4837;SDS011;2433;48.768;9.154;2023-02-28T00:25:45;3.80;;;2.43;;
4837;SDS011;2433;48.768;9.154;2023-02-28T00:28:10;2.27;;;2.07;;
4837;SDS011;2433;48.768;9.154;2023-02-28T00:30:36;1.87;;;1.10;;
4837;SDS011;2433;48.768;9.154;2023-02-28T00:33:03;2.25;;;2.03;;
4837;SDS011;2433;48.768;9.154;2023-02-28T00:35:29;3.23;;;2.93;;
4837;SDS011;2433;48.768;9.154;2023-02-28T00:37:54;2.87;;;2.60;;
4837;SDS011;2433;48.768;9.154;2023-02-28T00:40:20;3.17;;;2.87;;
4837;SDS011;2433;48.768;9.154;2023-02-28T00:42:46;3.00;;;2.50;;
4837;SDS011;2433;48.768;9.154;2023-02-28T00:45:12;2.45;;;2.22;;
4837;SDS011;2433;48.768;9.154;2023-02-28T00:47:38;5.10;;;2.27;;
4837;SDS011;2433;48.768;9.154;2023-02-28T00:50:03;2.83;;;2.40;;
4837;SDS011;2433;48.768;9.154;2023-02-28T00:52:30;4.00;;;2.58;;
4837;SDS011;2433;48.768;9.154;2023-02-28T00:54:55;5.27;;;3.07;;
4837;SDS011;2433;48.768;9.154;2023-02-28T00:57:21;3.57;;;2.80;;
4837;SDS011;2433;48.768;9.154;2023-02-28T00:59:47;4.80;;;2.88;;
4837;SDS011;2433;48.768;9.154;2023-02-28T01:02:13;4.17;;;2.90;;
4837;SDS011;2433;48.768;9.154;2023-02-28T01:04:38;3.93;;;2.40;;
4837;SDS011;2433;48.768;9.154;2023-02-28T01:07:04;3.03;;;2.83;;
4837;SDS011;2433;48.768;9.154;2023-02-28T01:09:30;3.17;;;2.67;;
4837;SDS011;2433;48.768;9.154;2023-02-28T01:11:57;3.08;;;2.88;;
4837;SDS011;2433;48.768;9.154;2023-02-28T01:14:23;5.68;;;3.25;;
4837;SDS011;2433;48.768;9.154;2023-02-28T01:16:49;3.00;;;2.53;;
4837;SDS011;2433;48.768;9.154;2023-02-28T01:19:16;2.63;;;2.42;;
4837;SDS011;2433;48.768;9.154;2023-02-28T01:21:42;3.70;;;2.13;;
4837;SDS011;2433;48.768;9.154;2023-02-28T01:24:08;3.57;;;2.30;;
4837;SDS011;2433;48.768;9.154;2023-02-28T01:26:34;4.60;;;2.88;;
4837;SDS011;2433;48.768;9.154;2023-02-28T01:29:00;3.03;;;2.73;;
4837;SDS011;2433;48.768;9.154;2023-02-28T01:31:25;3.03;;;2.70;;
4837;SDS011;2433;48.768;9.154;2023-02-28T01:33:51;4.33;;;3.20;;
4837;SDS011;2433;48.768;9.154;2023-02-28T01:36:18;3.42;;;3.22;;
4837;SDS011;2433;48.768;9.154;2023-02-28T01:38:46;3.35;;;3.15;;
4837;SDS011;2433;48.768;9.154;2023-02-28T01:41:22;2.90;;;2.63;;
4837;SDS011;2433;48.768;9.154;2023-02-28T01:46:39;4.38;;;2.85;;
4837;SDS011;2433;48.768;9.154;2023-02-28T01:49:09;3.17;;;2.87;;
4837;SDS011;2433;48.768;9.154;2023-02-28T01:51:47;3.10;;;2.80;;
4837;SDS011;2433;48.768;9.154;2023-02-28T01:54:24;4.20;;;2.90;;
4837;SDS011;2433;48.768;9.154;2023-02-28T01:56:53;5.85;;;2.83;;
4837;SDS011;2433;48.768;9.154;2023-02-28T01:59:23;5.05;;;4.20;;
4837;SDS011;2433;48.768;9.154;2023-02-28T02:01:52;2.80;;;2.60;;
4837;SDS011;2433;48.768;9.154;2023-02-28T02:04:18;7.43;;;3.30;;
4837;SDS011;2433;48.768;9.154;2023-02-28T02:06:45;3.92;;;3.28;;
4837;SDS011;2433;48.768;9.154;2023-02-28T02:09:13;5.97;;;2.83;;
4837;SDS011;2433;48.768;9.154;2023-02-28T02:11:39;3.07;;;2.20;;
4837;SDS011;2433;48.768;9.154;2023-02-28T02:17:04;6.80;;;3.97;;
4837;SDS011;2433;48.768;9.154;2023-02-28T02:22:55;3.85;;;3.35;;
4837;SDS011;2433;48.768;9.154;2023-02-28T02:36:51;7.10;;;3.40;;
4837;SDS011;2433;48.768;9.154;2023-02-28T02:39:26;3.33;;;3.03;;
4837;SDS011;2433;48.768;9.154;2023-02-28T02:42:01;3.33;;;2.92;;
4837;SDS011;2433;48.768;9.154;2023-02-28T02:44:39;3.35;;;2.70;;
4837;SDS011;2433;48.768;9.154;2023-02-28T02:47:12;6.53;;;4.50;;
4837;SDS011;2433;48.768;9.154;2023-02-28T02:49:41;3.38;;;3.08;;
4837;SDS011;2433;48.768;9.154;2023-02-28T02:52:10;5.57;;;4.15;;
4837;SDS011;2433;48.768;9.154;2023-02-28T02:54:38;3.90;;;3.50;;
4837;SDS011;2433;48.768;9.154;2023-02-28T02:57:07;4.68;;;4.25;;
4837;SDS011;2433;48.768;9.154;2023-02-28T02:59:35;3.28;;;3.05;;
4837;SDS011;2433;48.768;9.154;2023-02-28T03:02:02;5.53;;;3.67;;
4837;SDS011;2433;48.768;9.154;2023-02-28T03:04:31;3.50;;;2.75;;
4837;SDS011;2433;48.768;9.154;2023-02-28T03:06:59;4.35;;;3.95;;
4837;SDS011;2433;48.768;9.154;2023-02-28T03:09:25;4.40;;;4.00;;
4837;SDS011;2433;48.768;9.154;2023-02-28T03:11:54;7.00;;;4.20;;
4837;SDS011;2433;48.768;9.154;2023-02-28T03:14:34;5.65;;;4.10;;
4837;SDS011;2433;48.768;9.154;2023-02-28T03:17:08;5.45;;;4.85;;
4837;SDS011;2433;48.768;9.154;2023-02-28T03:19:55;5.45;;;4.18;;
4837;SDS011;2433;48.768;9.154;2023-02-28T03:27:42;2.63;;;2.42;;
4837;SDS011;2433;48.768;9.154;2023-02-28T03:30:22;6.00;;;2.95;;
4837;SDS011;2433;48.768;9.154;2023-02-28T03:33:06;5.10;;;3.53;;
4837;SDS011;2433;48.768;9.154;2023-02-28T03:35:42;4.28;;;3.88;;
4837;SDS011;2433;48.768;9.154;2023-02-28T03:38:18;5.70;;;4.68;;
4837;SDS011;2433;48.768;9.154;2023-02-28T03:40:51;5.80;;;5.22;;
4837;SDS011;2433;48.768;9.154;2023-02-28T03:43:24;4.00;;;3.03;;
4837;SDS011;2433;48.768;9.154;2023-02-28T03:45:52;5.97;;;3.17;;
4837;SDS011;2433;48.768;9.154;2023-02-28T03:48:25;4.40;;;4.00;;
4837;SDS011;2433;48.768;9.154;2023-02-28T03:50:55;4.45;;;3.10;;
4837;SDS011;2433;48.768;9.154;2023-02-28T03:53:32;5.65;;;3.53;;
4837;SDS011;2433;48.768;9.154;2023-02-28T04:01:28;6.05;;;3.90;;
4837;SDS011;2433;48.768;9.154;2023-02-28T04:03:57;5.25;;;4.45;;
4837;SDS011;2433;48.768;9.154;2023-02-28T04:06:23;3.30;;;3.00;;
4837;SDS011;2433;48.768;9.154;2023-02-28T04:08:49;4.47;;;3.90;;
4837;SDS011;2433;48.768;9.154;2023-02-28T04:14:11;5.38;;;4.50;;
4837;SDS011;2433;48.768;9.154;2023-02-28T04:16:38;5.47;;;4.87;;
4837;SDS011;2433;48.768;9.154;2023-02-28T04:19:06;5.15;;;3.75;;
4837;SDS011;2433;48.768;9.154;2023-02-28T04:21:33;5.03;;;4.53;;
4837;SDS011;2433;48.768;9.154;2023-02-28T04:24:00;4.82;;;4.32;;
4837;SDS011;2433;48.768;9.154;2023-02-28T04:26:33;6.43;;;5.10;;
4837;SDS011;2433;48.768;9.154;2023-02-28T04:29:00;5.38;;;4.45;;
4837;SDS011;2433;48.768;9.154;2023-02-28T04:31:26;5.90;;;4.10;;
4837;SDS011;2433;48.768;9.154;2023-02-28T04:33:51;5.90;;;4.87;;
4837;SDS011;2433;48.768;9.154;2023-02-28T04:36:18;5.28;;;4.75;;
4837;SDS011;2433;48.768;9.154;2023-02-28T04:38:44;4.83;;;4.43;;
4837;SDS011;2433;48.768;9.154;2023-02-28T04:41:10;4.57;;;3.95;;
4837;SDS011;2433;48.768;9.154;2023-02-28T04:43:36;5.47;;;3.78;;
4837;SDS011;2433;48.768;9.154;2023-02-28T04:46:03;5.30;;;4.80;;
4837;SDS011;2433;48.768;9.154;2023-02-28T04:48:30;5.18;;;4.40;;
4837;SDS011;2433;48.768;9.154;2023-02-28T04:51:01;4.40;;;4.00;;
4837;SDS011;2433;48.768;9.154;2023-02-28T04:53:28;7.03;;;4.55;;
4837;SDS011;2433;48.768;9.154;2023-02-28T04:55:54;6.15;;;5.25;;
4837;SDS011;2433;48.768;9.154;2023-02-28T04:58:21;5.10;;;4.32;;
4837;SDS011;2433;48.768;9.154;2023-02-28T05:00:49;6.50;;;3.65;;
4837;SDS011;2433;48.768;9.154;2023-02-28T05:03:15;8.02;;;4.20;;
4837;SDS011;2433;48.768;9.154;2023-02-28T05:05:40;6.07;;;5.20;;
4837;SDS011;2433;48.768;9.154;2023-02-28T05:08:06;9.53;;;4.23;;
4837;SDS011;2433;48.768;9.154;2023-02-28T05:10:31;6.83;;;5.40;;
4837;SDS011;2433;48.768;9.154;2023-02-28T05:12:57;4.67;;;3.20;;
4837;SDS011;2433;48.768;9.154;2023-02-28T05:15:23;4.70;;;4.03;;
4837;SDS011;2433;48.768;9.154;2023-02-28T05:17:48;10.03;;;6.83;;
4837;SDS011;2433;48.768;9.154;2023-02-28T05:20:14;4.90;;;4.40;;
4837;SDS011;2433;48.768;9.154;2023-02-28T05:22:40;6.90;;;6.30;;
4837;SDS011;2433;48.768;9.154;2023-02-28T05:25:06;5.80;;;5.15;;
4837;SDS011;2433;48.768;9.154;2023-02-28T05:27:33;4.82;;;4.38;;
4837;SDS011;2433;48.768;9.154;2023-02-28T05:29:59;6.53;;;4.80;;
4837;SDS011;2433;48.768;9.154;2023-02-28T05:32:27;5.20;;;3.97;;
4837;SDS011;2433;48.768;9.154;2023-02-28T05:34:53;6.73;;;5.07;;
4837;SDS011;2433;48.768;9.154;2023-02-28T05:37:18;5.90;;;4.30;;
4837;SDS011;2433;48.768;9.154;2023-02-28T05:39:44;5.83;;;5.00;;
4837;SDS011;2433;48.768;9.154;2023-02-28T05:42:09;10.90;;;3.90;;
4837;SDS011;2433;48.768;9.154;2023-02-28T05:44:35;5.47;;;4.97;;
4837;SDS011;2433;48.768;9.154;2023-02-28T05:47:01;9.45;;;6.07;;
4837;SDS011;2433;48.768;9.154;2023-02-28T05:49:27;6.13;;;5.53;;
4837;SDS011;2433;48.768;9.154;2023-02-28T05:51:52;5.80;;;4.77;;
4837;SDS011;2433;48.768;9.154;2023-02-28T05:54:18;6.90;;;5.40;;
4837;SDS011;2433;48.768;9.154;2023-02-28T05:56:43;3.73;;;2.87;;
4837;SDS011;2433;48.768;9.154;2023-02-28T05:59:11;5.03;;;4.53;;
4837;SDS011;2433;48.768;9.154;2023-02-28T06:04:05;5.90;;;3.35;;
4837;SDS011;2433;48.768;9.154;2023-02-28T06:06:32;7.47;;;5.78;;
4837;SDS011;2433;48.768;9.154;2023-02-28T06:09:03;8.07;;;6.45;;
4837;SDS011;2433;48.768;9.154;2023-02-28T06:11:29;5.63;;;3.88;;
4837;SDS011;2433;48.768;9.154;2023-02-28T06:13:58;7.20;;;4.80;;
4837;SDS011;2433;48.768;9.154;2023-02-28T06:16:26;5.15;;;4.53;;
4837;SDS011;2433;48.768;9.154;2023-02-28T06:18:52;10.57;;;7.13;;
4837;SDS011;2433;48.768;9.154;2023-02-28T06:21:20;7.05;;;4.85;;
4837;SDS011;2433;48.768;9.154;2023-02-28T06:23:47;6.05;;;3.97;;
4837;SDS011;2433;48.768;9.154;2023-02-28T06:26:12;9.97;;;6.33;;
4837;SDS011;2433;48.768;9.154;2023-02-28T06:28:38;7.53;;;4.70;;
4837;SDS011;2433;48.768;9.154;2023-02-28T06:31:11;9.97;;;5.27;;
4837;SDS011;2433;48.768;9.154;2023-02-28T06:33:38;5.13;;;4.25;;
4837;SDS011;2433;48.768;9.154;2023-02-28T06:36:04;6.97;;;4.75;;
4837;SDS011;2433;48.768;9.154;2023-02-28T06:38:30;6.97;;;5.60;;
4837;SDS011;2433;48.768;9.154;2023-02-28T06:40:57;6.65;;;5.40;;
4837;SDS011;2433;48.768;9.154;2023-02-28T06:43:24;7.80;;;4.70;;
4837;SDS011;2433;48.768;9.154;2023-02-28T06:45:50;8.43;;;5.82;;
4837;SDS011;2433;48.768;9.154;2023-02-28T06:48:16;10.55;;;4.95;;
4837;SDS011;2433;48.768;9.154;2023-02-28T06:50:42;6.30;;;5.07;;
4837;SDS011;2433;48.768;9.154;2023-02-28T06:53:08;9.17;;;5.70;;
4837;SDS011;2433;48.768;9.154;2023-02-28T06:55:33;4.63;;;3.60;;
4837;SDS011;2433;48.768;9.154;2023-02-28T06:57:59;7.87;;;6.17;;
4837;SDS011;2433;48.768;9.154;2023-02-28T07:00:25;5.73;;;4.50;;
4837;SDS011;2433;48.768;9.154;2023-02-28T07:02:50;6.23;;;5.50;;
4837;SDS011;2433;48.768;9.154;2023-02-28T07:05:16;8.07;;;5.80;;
4837;SDS011;2433;48.768;9.154;2023-02-28T07:07:41;7.90;;;5.07;;
4837;SDS011;2433;48.768;9.154;2023-02-28T07:10:12;6.68;;;4.97;;
4837;SDS011;2433;48.768;9.154;2023-02-28T07:12:39;10.50;;;4.72;;
4837;SDS011;2433;48.768;9.154;2023-02-28T07:15:05;8.90;;;5.43;;
4837;SDS011;2433;48.768;9.154;2023-02-28T07:17:31;9.10;;;6.80;;
4837;SDS011;2433;48.768;9.154;2023-02-28T07:19:57;6.30;;;4.80;;
4837;SDS011;2433;48.768;9.154;2023-02-28T07:22:23;7.50;;;4.53;;
4837;SDS011;2433;48.768;9.154;2023-02-28T07:24:48;10.67;;;7.00;;
4837;SDS011;2433;48.768;9.154;2023-02-28T07:27:14;9.30;;;4.60;;
4837;SDS011;2433;48.768;9.154;2023-02-28T07:29:49;9.73;;;4.80;;
4837;SDS011;2433;48.768;9.154;2023-02-28T07:32:15;9.10;;;5.22;;
4837;SDS011;2433;48.768;9.154;2023-02-28T07:34:41;8.90;;;5.67;;
4837;SDS011;2433;48.768;9.154;2023-02-28T07:37:06;8.43;;;6.23;;
4837;SDS011;2433;48.768;9.154;2023-02-28T07:39:32;7.90;;;4.73;;
4837;SDS011;2433;48.768;9.154;2023-02-28T07:41:57;8.10;;;6.23;;
4837;SDS011;2433;48.768;9.154;2023-02-28T07:44:25;8.25;;;5.85;;
4837;SDS011;2433;48.768;9.154;2023-02-28T07:46:51;7.60;;;5.95;;
4837;SDS011;2433;48.768;9.154;2023-02-28T07:49:18;12.68;;;6.97;;
4837;SDS011;2433;48.768;9.154;2023-02-28T07:51:44;8.30;;;6.70;;
4837;SDS011;2433;48.768;9.154;2023-02-28T07:54:09;9.63;;;5.83;;
4837;SDS011;2433;48.768;9.154;2023-02-28T07:56:35;8.93;;;5.43;;
4837;SDS011;2433;48.768;9.154;2023-02-28T07:59:00;7.37;;;5.50;;
4837;SDS011;2433;48.768;9.154;2023-02-28T08:01:27;9.45;;;6.70;;
4837;SDS011;2433;48.768;9.154;2023-02-28T08:03:53;10.17;;;6.73;;
4837;SDS011;2433;48.768;9.154;2023-02-28T08:06:23;7.07;;;6.38;;
4837;SDS011;2433;48.768;9.154;2023-02-28T08:08:50;11.63;;;6.20;;
4837;SDS011;2433;48.768;9.154;2023-02-28T08:11:16;7.15;;;5.55;;
4837;SDS011;2433;48.768;9.154;2023-02-28T08:13:42;10.10;;;6.07;;
4837;SDS011;2433;48.768;9.154;2023-02-28T08:16:09;8.65;;;5.70;;
4837;SDS011;2433;48.768;9.154;2023-02-28T08:18:35;9.70;;;6.20;;
4837;SDS011;2433;48.768;9.154;2023-02-28T08:21:08;6.83;;;5.20;;
4837;SDS011;2433;48.768;9.154;2023-02-28T08:23:34;8.88;;;7.40;;
4837;SDS011;2433;48.768;9.154;2023-02-28T08:26:00;11.17;;;6.57;;
4837;SDS011;2433;48.768;9.154;2023-02-28T08:28:26;10.93;;;5.53;;
4837;SDS011;2433;48.768;9.154;2023-02-28T08:30:51;10.20;;;7.50;;
4837;SDS011;2433;48.768;9.154;2023-02-28T08:33:17;13.53;;;6.40;;
4837;SDS011;2433;48.768;9.154;2023-02-28T08:35:42;9.70;;;5.73;;
4837;SDS011;2433;48.768;9.154;2023-02-28T08:38:08;9.43;;;7.63;;
4837;SDS011;2433;48.768;9.154;2023-02-28T08:40:33;9.70;;;6.83;;
4837;SDS011;2433;48.768;9.154;2023-02-28T08:42:59;10.35;;;7.00;;
4837;SDS011;2433;48.768;9.154;2023-02-28T08:45:25;7.70;;;6.90;;
4837;SDS011;2433;48.768;9.154;2023-02-28T08:47:51;9.83;;;5.90;;
4837;SDS011;2433;48.768;9.154;2023-02-28T08:50:17;11.45;;;8.55;;
4837;SDS011;2433;48.768;9.154;2023-02-28T08:52:44;9.40;;;6.40;;
4837;SDS011;2433;48.768;9.154;2023-02-28T08:55:09;12.93;;;7.23;;
4837;SDS011;2433;48.768;9.154;2023-02-28T08:57:35;10.73;;;6.83;;
4837;SDS011;2433;48.768;9.154;2023-02-28T09:00:01;7.17;;;5.83;;
4837;SDS011;2433;48.768;9.154;2023-02-28T09:02:30;13.02;;;8.45;;
4837;SDS011;2433;48.768;9.154;2023-02-28T09:04:57;9.63;;;7.57;;
4837;SDS011;2433;48.768;9.154;2023-02-28T09:07:23;9.02;;;6.65;;
4837;SDS011;2433;48.768;9.154;2023-02-28T09:09:49;7.88;;;6.00;;
4837;SDS011;2433;48.768;9.154;2023-02-28T09:12:21;9.18;;;6.65;;
4837;SDS011;2433;48.768;9.154;2023-02-28T09:14:51;12.85;;;7.47;;
4837;SDS011;2433;48.768;9.154;2023-02-28T09:17:17;7.50;;;5.83;;
4837;SDS011;2433;48.768;9.154;2023-02-28T09:19:43;9.15;;;7.90;;
4837;SDS011;2433;48.768;9.154;2023-02-28T09:22:09;10.63;;;6.97;;
4837;SDS011;2433;48.768;9.154;2023-02-28T09:24:36;9.57;;;7.00;;
4837;SDS011;2433;48.768;9.154;2023-02-28T09:27:02;9.43;;;7.90;;
4837;SDS011;2433;48.768;9.154;2023-02-28T09:29:28;8.97;;;6.30;;
4837;SDS011;2433;48.768;9.154;2023-02-28T09:31:54;12.27;;;7.10;;
4837;SDS011;2433;48.768;9.154;2023-02-28T09:34:21;9.38;;;8.55;;
4837;SDS011;2433;48.768;9.154;2023-02-28T09:36:46;10.10;;;6.27;;
4837;SDS011;2433;48.768;9.154;2023-02-28T09:39:12;9.73;;;6.70;;
4837;SDS011;2433;48.768;9.154;2023-02-28T09:41:44;9.07;;;7.05;;
4837;SDS011;2433;48.768;9.154;2023-02-28T09:50:14;11.20;;;8.02;;
4837;SDS011;2433;48.768;9.154;2023-02-28T09:52:45;7.15;;;6.40;;
4837;SDS011;2433;48.768;9.154;2023-02-28T09:57:49;9.10;;;6.55;;
4837;SDS011;2433;48.768;9.154;2023-02-28T10:00:21;10.32;;;9.25;;
4837;SDS011;2433;48.768;9.154;2023-02-28T10:05:24;10.43;;;7.30;;
4837;SDS011;2433;48.768;9.154;2023-02-28T10:10:32;9.68;;;6.63;;
4837;SDS011;2433;48.768;9.154;2023-02-28T10:13:04;10.48;;;7.10;;
4837;SDS011;2433;48.768;9.154;2023-02-28T10:15:32;11.15;;;8.13;;
4837;SDS011;2433;48.768;9.154;2023-02-28T10:18:02;9.77;;;7.70;;
4837;SDS011;2433;48.768;9.154;2023-02-28T10:20:30;16.75;;;7.82;;
4837;SDS011;2433;48.768;9.154;2023-02-28T10:25:33;10.05;;;6.30;;
4837;SDS011;2433;48.768;9.154;2023-02-28T10:28:01;11.20;;;6.88;;
4837;SDS011;2433;48.768;9.154;2023-02-28T10:30:41;10.50;;;7.65;;
4837;SDS011;2433;48.768;9.154;2023-02-28T10:33:19;11.60;;;7.35;;
4837;SDS011;2433;48.768;9.154;2023-02-28T10:35:48;11.55;;;6.18;;
4837;SDS011;2433;48.768;9.154;2023-02-28T10:38:16;9.27;;;6.57;;
4837;SDS011;2433;48.768;9.154;2023-02-28T10:40:47;8.52;;;6.50;;
4837;SDS011;2433;48.768;9.154;2023-02-28T10:45:38;10.73;;;6.67;;
4837;SDS011;2433;48.768;9.154;2023-02-28T10:50:42;9.88;;;6.93;;
4837;SDS011;2433;48.768;9.154;2023-02-28T10:55:56;9.27;;;7.32;;
4837;SDS011;2433;48.768;9.154;2023-02-28T10:58:25;10.68;;;8.07;;
4837;SDS011;2433;48.768;9.154;2023-02-28T11:00:53;10.13;;;8.32;;
4837;SDS011;2433;48.768;9.154;2023-02-28T11:03:30;8.38;;;6.95;;
4837;SDS011;2433;48.768;9.154;2023-02-28T11:05:58;9.73;;;7.88;;
4837;SDS011;2433;48.768;9.154;2023-02-28T11:08:29;11.45;;;8.18;;
4837;SDS011;2433;48.768;9.154;2023-02-28T11:10:55;10.50;;;9.40;;
4837;SDS011;2433;48.768;9.154;2023-02-28T11:13:25;10.35;;;7.30;;
4837;SDS011;2433;48.768;9.154;2023-02-28T11:15:54;15.75;;;9.05;;
4837;SDS011;2433;48.768;9.154;2023-02-28T11:18:38;11.02;;;7.53;;
4837;SDS011;2433;48.768;9.154;2023-02-28T11:21:07;12.95;;;7.85;;
4837;SDS011;2433;48.768;9.154;2023-02-28T11:23:35;7.45;;;6.75;;
4837;SDS011;2433;48.768;9.154;2023-02-28T11:26:03;12.88;;;7.25;;
4837;SDS011;2433;48.768;9.154;2023-02-28T11:28:31;10.25;;;7.22;;
4837;SDS011;2433;48.768;9.154;2023-02-28T11:31:03;8.57;;;7.10;;
4837;SDS011;2433;48.768;9.154;2023-02-28T11:33:32;14.07;;;8.00;;
4837;SDS011;2433;48.768;9.154;2023-02-28T11:36:10;13.15;;;8.77;;
4837;SDS011;2433;48.768;9.154;2023-02-28T11:38:37;10.85;;;8.20;;
4837;SDS011;2433;48.768;9.154;2023-02-28T11:46:56;11.27;;;7.07;;
4837;SDS011;2433;48.768;9.154;2023-02-28T11:49:35;10.10;;;7.72;;
4837;SDS011;2433;48.768;9.154;2023-02-28T11:54:59;10.23;;;8.32;;
4837;SDS011;2433;48.768;9.154;2023-02-28T12:08:51;10.45;;;8.13;;
4837;SDS011;2433;48.768;9.154;2023-02-28T12:11:30;11.68;;;7.68;;
4837;SDS011;2433;48.768;9.154;2023-02-28T12:14:05;13.77;;;8.40;;
4837;SDS011;2433;48.768;9.154;2023-02-28T12:16:59;8.50;;;7.60;;
4837;SDS011;2433;48.768;9.154;2023-02-28T12:19:48;8.10;;;6.97;;
4837;SDS011;2433;48.768;9.154;2023-02-28T12:22:22;9.63;;;7.00;;
4837;SDS011;2433;48.768;9.154;2023-02-28T12:27:21;9.55;;;8.38;;
4837;SDS011;2433;48.768;9.154;2023-02-28T12:29:53;8.32;;;6.82;;
4837;SDS011;2433;48.768;9.154;2023-02-28T12:32:30;7.97;;;7.13;;
4837;SDS011;2433;48.768;9.154;2023-02-28T12:40:09;8.95;;;7.45;;
4837;SDS011;2433;48.768;9.154;2023-02-28T12:42:42;10.27;;;7.30;;
4837;SDS011;2433;48.768;9.154;2023-02-28T12:45:13;12.43;;;8.40;;
4837;SDS011;2433;48.768;9.154;2023-02-28T12:47:48;14.52;;;8.48;;
4837;SDS011;2433;48.768;9.154;2023-02-28T12:50:16;9.68;;;6.90;;
4837;SDS011;2433;48.768;9.154;2023-02-28T13:01:26;9.60;;;8.10;;
4837;SDS011;2433;48.768;9.154;2023-02-28T13:04:19;10.13;;;7.63;;
4837;SDS011;2433;48.768;9.154;2023-02-28T13:09:31;14.38;;;8.25;;
4837;SDS011;2433;48.768;9.154;2023-02-28T13:11:57;10.10;;;8.30;;
4837;SDS011;2433;48.768;9.154;2023-02-28T13:23:04;8.80;;;7.00;;
4837;SDS011;2433;48.768;9.154;2023-02-28T13:26:01;9.75;;;7.85;;
4837;SDS011;2433;48.768;9.154;2023-02-28T13:31:23;8.55;;;7.50;;
4837;SDS011;2433;48.768;9.154;2023-02-28T13:38:55;12.52;;;7.95;;
4837;SDS011;2433;48.768;9.154;2023-02-28T13:51:51;10.07;;;8.07;;
4837;SDS011;2433;48.768;9.154;2023-02-28T13:54:30;9.52;;;7.35;;
4837;SDS011;2433;48.768;9.154;2023-02-28T13:59:29;10.23;;;8.37;;
4837;SDS011;2433;48.768;9.154;2023-02-28T14:02:03;8.80;;;7.63;;
4837;SDS011;2433;48.768;9.154;2023-02-28T14:04:58;7.55;;;5.68;;
4837;SDS011;2433;48.768;9.154;2023-02-28T14:07:27;7.93;;;5.30;;
4837;SDS011;2433;48.768;9.154;2023-02-28T14:09:56;11.35;;;8.15;;
4837;SDS011;2433;48.768;9.154;2023-02-28T14:15:36;12.05;;;8.75;;
4837;SDS011;2433;48.768;9.154;2023-02-28T14:20:43;8.00;;;7.03;;
4837;SDS011;2433;48.768;9.154;2023-02-28T14:28:49;9.68;;;6.95;;
4837;SDS011;2433;48.768;9.154;2023-02-28T14:31:57;10.15;;;6.72;;
4837;SDS011;2433;48.768;9.154;2023-02-28T14:36:58;11.57;;;8.57;;
4837;SDS011;2433;48.768;9.154;2023-02-28T14:39:25;8.50;;;7.10;;
4837;SDS011;2433;48.768;9.154;2023-02-28T14:41:52;11.73;;;7.32;;
4837;SDS011;2433;48.768;9.154;2023-02-28T14:46:48;10.95;;;6.55;;
4837;SDS011;2433;48.768;9.154;2023-02-28T14:52:01;8.68;;;6.70;;
4837;SDS011;2433;48.768;9.154;2023-02-28T14:54:28;9.52;;;6.70;;
4837;SDS011;2433;48.768;9.154;2023-02-28T14:56:54;9.17;;;5.93;;
4837;SDS011;2433;48.768;9.154;2023-02-28T14:59:25;10.73;;;6.50;;
4837;SDS011;2433;48.768;9.154;2023-02-28T15:04:41;8.85;;;6.60;;
4837;SDS011;2433;48.768;9.154;2023-02-28T15:07:08;8.17;;;6.80;;
4837;SDS011;2433;48.768;9.154;2023-02-28T15:09:39;7.90;;;6.57;;
4837;SDS011;2433;48.768;9.154;2023-02-28T15:12:04;9.17;;;6.93;;
4837;SDS011;2433;48.768;9.154;2023-02-28T15:14:30;8.03;;;7.23;;
4837;SDS011;2433;48.768;9.154;2023-02-28T15:17:02;10.35;;;7.85;;
4837;SDS011;2433;48.768;9.154;2023-02-28T15:19:34;13.02;;;7.68;;
4837;SDS011;2433;48.768;9.154;2023-02-28T15:22:04;8.45;;;6.18;;
4837;SDS011;2433;48.768;9.154;2023-02-28T15:24:36;10.73;;;7.38;;
4837;SDS011;2433;48.768;9.154;2023-02-28T15:27:07;10.77;;;7.50;;
4837;SDS011;2433;48.768;9.154;2023-02-28T15:29:42;10.70;;;6.93;;
4837;SDS011;2433;48.768;9.154;2023-02-28T15:32:23;9.85;;;7.30;;
4837;SDS011;2433;48.768;9.154;2023-02-28T15:34:57;10.27;;;8.13;;
4837;SDS011;2433;48.768;9.154;2023-02-28T15:37:27;10.32;;;6.93;;
4837;SDS011;2433;48.768;9.154;2023-02-28T15:39:55;10.40;;;7.70;;
4837;SDS011;2433;48.768;9.154;2023-02-28T15:42:23;10.75;;;8.23;;
4837;SDS011;2433;48.768;9.154;2023-02-28T15:44:53;8.10;;;7.30;;
4837;SDS011;2433;48.768;9.154;2023-02-28T15:47:22;11.47;;;7.90;;
4837;SDS011;2433;48.768;9.154;2023-02-28T15:49:53;11.32;;;6.13;;
4837;SDS011;2433;48.768;9.154;2023-02-28T15:57:35;10.23;;;7.25;;
4837;SDS011;2433;48.768;9.154;2023-02-28T16:00:01;9.80;;;8.57;;
4837;SDS011;2433;48.768;9.154;2023-02-28T16:02:37;11.60;;;7.25;;
4837;SDS011;2433;48.768;9.154;2023-02-28T16:07:38;9.45;;;6.68;;
4837;SDS011;2433;48.768;9.154;2023-02-28T16:10:06;7.55;;;6.00;;
4837;SDS011;2433;48.768;9.154;2023-02-28T16:12:33;12.07;;;8.80;;
4837;SDS011;2433;48.768;9.154;2023-02-28T16:15:00;11.85;;;8.02;;
4837;SDS011;2433;48.768;9.154;2023-02-28T16:17:31;8.23;;;7.05;;
4837;SDS011;2433;48.768;9.154;2023-02-28T16:19:59;12.55;;;8.15;;
4837;SDS011;2433;48.768;9.154;2023-02-28T16:22:25;9.15;;;7.75;;
4837;SDS011;2433;48.768;9.154;2023-02-28T16:24:51;8.85;;;7.20;;
4837;SDS011;2433;48.768;9.154;2023-02-28T16:27:18;11.40;;;8.50;;
4837;SDS011;2433;48.768;9.154;2023-02-28T16:29:46;8.90;;;7.40;;
4837;SDS011;2433;48.768;9.154;2023-02-28T16:32:13;12.30;;;7.77;;
4837;SDS011;2433;48.768;9.154;2023-02-28T16:34:40;8.45;;;7.10;;
4837;SDS011;2433;48.768;9.154;2023-02-28T16:37:11;12.40;;;8.80;;
4837;SDS011;2433;48.768;9.154;2023-02-28T16:39:38;9.43;;;8.05;;
4837;SDS011;2433;48.768;9.154;2023-02-28T16:42:04;11.90;;;8.43;;
4837;SDS011;2433;48.768;9.154;2023-02-28T16:46:59;9.20;;;5.82;;
4837;SDS011;2433;48.768;9.154;2023-02-28T16:49:25;11.38;;;7.32;;
4837;SDS011;2433;48.768;9.154;2023-02-28T16:51:51;9.37;;;7.93;;
4837;SDS011;2433;48.768;9.154;2023-02-28T16:54:16;12.83;;;8.50;;
4837;SDS011;2433;48.768;9.154;2023-02-28T16:56:43;10.50;;;7.80;;
4837;SDS011;2433;48.768;9.154;2023-02-28T16:59:10;7.82;;;6.55;;
4837;SDS011;2433;48.768;9.154;2023-02-28T17:01:37;10.90;;;7.72;;
4837;SDS011;2433;48.768;9.154;2023-02-28T17:04:02;11.70;;;8.33;;
4837;SDS011;2433;48.768;9.154;2023-02-28T17:06:28;8.83;;;7.00;;
4837;SDS011;2433;48.768;9.154;2023-02-28T17:08:55;10.30;;;6.97;;
4837;SDS011;2433;48.768;9.154;2023-02-28T17:11:21;9.30;;;7.72;;
4837;SDS011;2433;48.768;9.154;2023-02-28T17:13:47;11.65;;;7.85;;
4837;SDS011;2433;48.768;9.154;2023-02-28T17:16:24;11.80;;;9.50;;
4837;SDS011;2433;48.768;9.154;2023-02-28T17:18:52;10.55;;;7.63;;
4837;SDS011;2433;48.768;9.154;2023-02-28T17:21:19;9.70;;;7.07;;
4837;SDS011;2433;48.768;9.154;2023-02-28T17:23:45;10.60;;;8.27;;
4837;SDS011;2433;48.768;9.154;2023-02-28T17:26:15;10.00;;;7.30;;
4837;SDS011;2433;48.768;9.154;2023-02-28T17:28:42;10.82;;;9.13;;
4837;SDS011;2433;48.768;9.154;2023-02-28T17:31:08;11.13;;;9.17;;
4837;SDS011;2433;48.768;9.154;2023-02-28T17:33:35;11.37;;;8.93;;
4837;SDS011;2433;48.768;9.154;2023-02-28T17:36:00;11.10;;;7.60;;
4837;SDS011;2433;48.768;9.154;2023-02-28T17:38:27;11.68;;;8.38;;
4837;SDS011;2433;48.768;9.154;2023-02-28T17:40:52;11.77;;;8.13;;
4837;SDS011;2433;48.768;9.154;2023-02-28T17:43:23;11.82;;;7.90;;
4837;SDS011;2433;48.768;9.154;2023-02-28T17:45:50;11.15;;;8.05;;
4837;SDS011;2433;48.768;9.154;2023-02-28T17:48:16;13.13;;;9.15;;
4837;SDS011;2433;48.768;9.154;2023-02-28T17:50:42;11.68;;;7.40;;
4837;SDS011;2433;48.768;9.154;2023-02-28T17:53:07;11.17;;;8.40;;
4837;SDS011;2433;48.768;9.154;2023-02-28T17:55:33;12.43;;;8.37;;
4837;SDS011;2433;48.768;9.154;2023-02-28T17:57:59;13.63;;;8.88;;
4837;SDS011;2433;48.768;9.154;2023-02-28T18:00:25;11.17;;;7.93;;